Time;durP1;ratioP1;P1;durP2;ratioP2;P2;SDS_P1;SDS_P2;PMS_P1;PMS_P2;Temp;Humidity;BMP_temperature;BMP_pressure;BME280_temperature;BME280_humidity;BME280_pressure;Samples;Min_cycle;Max_cycle;Signal;HPM_P1;HPM_P2
2023/10/10 00:00:23;;;;;;;6.72;1.83;;;13.20;99.90;;;;;;4984941;28;20044;-71
2023/10/10 00:02:51;;;;;;;4.88;1.40;;;13.10;99.90;;;;;;4978144;28;20018;-71
2023/10/10 00:05:22;;;;;;;5.18;1.85;;;13.10;99.90;;;;;;4981844;28;20031;-71
2023/10/10 00:07:53;;;;;;;4.40;1.80;;;13.10;99.90;;;;;;4980657;28;20034;-73
2023/10/10 00:10:20;;;;;;;7.80;2.13;;;13.10;99.90;;;;;;4979679;28;20697;-71
2023/10/10 00:12:47;;;;;;;5.15;1.92;;;13.10;99.90;;;;;;4979922;28;20026;-72
2023/10/10 00:15:22;;;;;;;6.60;1.80;;;13.10;99.90;;;;;;4975600;28;20081;-71
2023/10/10 00:17:48;;;;;;;3.55;1.67;;;13.10;99.90;;;;;;4977415;28;20036;-71
2023/10/10 00:20:21;;;;;;;6.32;1.73;;;13.10;99.90;;;;;;4980326;28;20507;-72
2023/10/10 00:22:47;;;;;;;5.30;2.00;;;13.10;99.90;;;;;;4978712;28;20030;-74
2023/10/10 00:25:14;;;;;;;6.13;1.80;;;13.20;99.90;;;;;;4981083;28;20113;-72
2023/10/10 00:27:39;;;;;;;7.28;2.33;;;13.20;99.90;;;;;;4975054;28;20122;-74
2023/10/10 00:30:06;;;;;;;5.57;1.63;;;13.20;99.90;;;;;;4974561;28;20169;-72
2023/10/10 00:32:35;;;;;;;5.63;1.83;;;13.20;99.90;;;;;;4982854;28;20381;-72
2023/10/10 00:35:06;;;;;;;6.70;2.25;;;13.20;99.90;;;;;;4977570;28;20386;-71
2023/10/10 00:37:34;;;;;;;9.13;1.63;;;13.20;99.90;;;;;;4979572;28;21390;-72
2023/10/10 00:40:07;;;;;;;9.15;2.10;;;13.30;99.90;;;;;;4983483;28;20034;-71
2023/10/10 00:42:42;;;;;;;5.15;2.30;;;13.20;99.90;;;;;;4977186;28;20467;-72
2023/10/10 00:45:09;;;;;;;5.65;2.40;;;13.20;99.90;;;;;;4977080;28;20092;-78
2023/10/10 00:47:42;;;;;;;5.15;1.63;;;13.30;99.90;;;;;;4978145;28;20159;-75
2023/10/10 00:50:19;;;;;;;4.20;1.60;;;13.30;99.90;;;;;;4975775;28;20066;-74
2023/10/10 00:52:48;;;;;;;7.22;2.00;;;13.30;99.90;;;;;;4976904;28;20026;-73
2023/10/10 00:55:14;;;;;;;8.60;2.03;;;13.30;99.90;;;;;;4982051;28;20043;-77
2023/10/10 00:57:40;;;;;;;7.50;2.00;;;13.30;99.90;;;;;;4980911;28;20080;-76
2023/10/10 01:00:14;;;;;;;6.90;1.95;;;13.30;99.90;;;;;;4981143;28;20323;-73
2023/10/10 01:02:42;;;;;;;7.82;2.03;;;13.30;99.90;;;;;;4990438;28;20049;-72
2023/10/10 01:05:16;;;;;;;8.88;2.33;;;13.30;99.90;;;;;;5004482;28;20030;-73
2023/10/10 01:07:48;;;;;;;9.60;2.53;;;13.30;99.90;;;;;;4985001;28;20480;-73
2023/10/10 01:10:16;;;;;;;6.68;2.20;;;13.40;99.90;;;;;;4987758;28;20049;-73
2023/10/10 01:12:43;;;;;;;5.45;2.22;;;13.30;99.90;;;;;;4982394;28;20093;-73
2023/10/10 01:15:14;;;;;;;8.18;2.17;;;13.40;99.90;;;;;;4988457;28;20031;-73
2023/10/10 01:17:40;;;;;;;4.88;2.40;;;13.40;99.90;;;;;;4990397;28;20034;-73
2023/10/10 01:20:33;;;;;;;5.80;2.40;;;13.40;99.90;;;;;;4982456;28;20046;-74
2023/10/10 01:23:00;;;;;;;9.85;2.88;;;13.40;99.90;;;;;;4986930;28;20035;-73
2023/10/10 01:28:02;;;;;;;11.10;3.00;;;13.40;99.90;;;;;;4989389;28;20121;-73
2023/10/10 01:33:14;;;;;;;7.95;3.00;;;13.40;99.90;;;;;;4981970;28;20033;-73
2023/10/10 01:35:43;;;;;;;6.63;3.00;;;13.40;99.90;;;;;;4979094;28;20178;-73
2023/10/10 01:38:55;;;;;;;5.82;2.95;;;13.50;99.90;;;;;;4981384;28;20038;-73
2023/10/10 01:41:23;;;;;;;7.60;2.75;;;13.40;99.90;;;;;;4979305;28;20042;-73
2023/10/10 01:43:54;;;;;;;7.43;3.38;;;13.40;99.90;;;;;;4975710;28;20027;-73
2023/10/10 01:46:27;;;;;;;8.10;3.17;;;13.50;99.90;;;;;;4981092;28;20126;-75
2023/10/10 01:48:54;;;;;;;8.52;3.10;;;13.40;99.90;;;;;;4979551;28;20030;-72
2023/10/10 01:51:19;;;;;;;9.70;3.53;;;13.50;99.90;;;;;;4981501;28;20142;-74
2023/10/10 01:53:45;;;;;;;8.75;3.40;;;13.40;99.90;;;;;;4981427;28;20026;-73
2023/10/10 01:56:14;;;;;;;7.50;3.58;;;13.50;99.90;;;;;;4981002;28;20109;-74
2023/10/10 01:58:41;;;;;;;13.65;3.63;;;13.50;99.90;;;;;;4978125;28;20030;-74
2023/10/10 02:01:16;;;;;;;8.48;3.95;;;13.50;99.90;;;;;;4980081;28;20034;-75
2023/10/10 02:03:42;;;;;;;8.82;3.60;;;13.50;99.90;;;;;;4980574;28;20121;-73
2023/10/10 02:06:13;;;;;;;9.75;3.75;;;13.50;99.90;;;;;;4980089;28;20038;-73
2023/10/10 02:08:38;;;;;;;9.10;3.25;;;13.50;99.90;;;;;;4978738;28;20029;-72
2023/10/10 02:11:06;;;;;;;10.85;3.80;;;13.50;99.90;;;;;;4980020;28;20046;-75
2023/10/10 02:13:33;;;;;;;7.60;3.63;;;13.50;99.90;;;;;;4975002;28;20041;-74
2023/10/10 02:16:00;;;;;;;7.18;3.72;;;13.50;99.90;;;;;;4974331;28;20045;-73
2023/10/10 02:18:38;;;;;;;9.15;3.90;;;13.50;99.90;;;;;;4979655;28;20038;-73
2023/10/10 02:21:09;;;;;;;7.75;3.85;;;13.40;99.90;;;;;;4980008;28;20030;-74
2023/10/10 02:23:35;;;;;;;7.60;3.28;;;13.40;99.90;;;;;;4977672;28;20447;-74
2023/10/10 02:26:14;;;;;;;7.18;4.07;;;13.40;99.90;;;;;;4979100;28;20132;-75
2023/10/10 02:28:48;;;;;;;9.35;4.05;;;13.40;99.90;;;;;;4976375;28;20026;-73
2023/10/10 02:31:18;;;;;;;8.98;4.30;;;13.40;99.90;;;;;;4982417;28;20045;-75
2023/10/10 02:33:48;;;;;;;8.20;4.00;;;13.50;99.90;;;;;;4978008;28;20030;-75
2023/10/10 02:36:15;;;;;;;9.90;4.10;;;13.50;99.90;;;;;;4978155;28;20040;-74
2023/10/10 02:38:53;;;;;;;8.40;3.95;;;13.40;99.90;;;;;;4978762;28;20289;-74
2023/10/10 02:41:38;;;;;;;8.00;4.15;;;13.40;99.90;;;;;;4982363;28;20031;-73
2023/10/10 02:44:05;;;;;;;11.05;4.38;;;13.50;99.90;;;;;;4974691;28;20030;-77
2023/10/10 02:46:36;;;;;;;13.05;4.50;;;13.40;99.90;;;;;;4976454;28;20033;-73
2023/10/10 02:49:12;;;;;;;10.88;4.93;;;13.40;99.90;;;;;;4980151;28;20080;-73
2023/10/10 02:51:43;;;;;;;10.75;4.30;;;13.50;99.90;;;;;;4981168;28;20022;-72
2023/10/10 02:54:53;;;;;;;10.52;4.03;;;13.40;99.90;;;;;;4977968;28;20022;-75
2023/10/10 02:59:52;;;;;;;9.73;4.40;;;13.40;99.90;;;;;;4978574;28;20096;-77
2023/10/10 03:02:19;;;;;;;11.63;4.20;;;13.40;99.90;;;;;;4986110;28;20463;-74
2023/10/10 03:07:28;;;;;;;10.13;4.13;;;13.40;99.90;;;;;;4991522;28;20084;-73
2023/10/10 03:12:41;;;;;;;7.35;3.30;;;13.40;99.90;;;;;;4992855;28;20037;-72
2023/10/10 03:15:21;;;;;;;8.05;4.05;;;13.40;99.90;;;;;;4983794;28;20038;-73
2023/10/10 03:18:14;;;;;;;10.60;4.27;;;13.40;99.90;;;;;;4986386;28;20035;-73
2023/10/10 03:25:54;;;;;;;9.02;3.78;;;13.40;99.90;;;;;;4981482;28;20057;-73
2023/10/10 03:31:05;;;;;;;8.52;4.15;;;13.30;99.90;;;;;;4988374;28;20483;-73
2023/10/10 03:33:44;;;;;;;10.90;3.92;;;13.40;99.90;;;;;;4980737;28;20034;-74
2023/10/10 05:25:23;;;;;;;12.90;6.53;;;13.40;99.90;;;;;;4984664;28;20064;-69
2023/10/10 05:27:52;;;;;;;13.82;6.45;;;13.30;99.90;;;;;;4981924;28;20022;-70
2023/10/10 05:30:23;;;;;;;16.20;6.38;;;13.40;99.90;;;;;;4976702;28;20034;-70
2023/10/10 05:33:00;;;;;;;14.52;6.53;;;13.40;99.90;;;;;;4984077;28;20472;-71
2023/10/10 05:35:27;;;;;;;15.60;6.72;;;13.30;99.90;;;;;;4981178;28;20066;-69
2023/10/10 05:37:53;;;;;;;16.40;7.30;;;13.40;99.90;;;;;;4987186;28;20074;-72
2023/10/10 05:40:20;;;;;;;11.82;5.82;;;13.40;99.90;;;;;;4986084;28;20062;-69
2023/10/10 05:42:45;;;;;;;14.48;6.70;;;13.40;99.90;;;;;;4989173;28;20031;-69
2023/10/10 05:45:13;;;;;;;19.17;6.85;;;13.40;99.90;;;;;;4974608;28;20093;-70
2023/10/10 05:47:39;;;;;;;13.68;6.45;;;13.40;99.90;;;;;;4990512;28;20503;-69
2023/10/10 05:50:10;;;;;;;17.42;7.45;;;13.40;99.90;;;;;;4983570;28;20035;-70
2023/10/10 05:52:38;;;;;;;15.23;6.88;;;13.50;99.90;;;;;;4978207;28;20026;-69
2023/10/10 05:55:05;;;;;;;19.70;7.22;;;13.40;99.90;;;;;;4982051;28;20027;-69
2023/10/10 05:57:33;;;;;;;15.35;6.65;;;13.50;99.90;;;;;;4985422;28;20468;-69
2023/10/10 05:59:59;;;;;;;15.93;7.05;;;13.50;99.90;;;;;;4985466;28;20026;-69
2023/10/10 06:02:27;;;;;;;18.33;6.93;;;13.50;99.90;;;;;;4982835;28;20383;-73
2023/10/10 06:04:53;;;;;;;17.40;6.47;;;13.50;99.90;;;;;;4978868;28;20519;-69
2023/10/10 06:07:20;;;;;;;17.60;7.85;;;13.50;99.90;;;;;;4989146;28;20121;-69
2023/10/10 06:09:48;;;;;;;23.92;7.40;;;13.50;99.90;;;;;;4988446;28;20463;-69
2023/10/10 06:12:15;;;;;;;20.33;7.53;;;13.50;99.90;;;;;;4990548;28;20026;-69
2023/10/10 06:14:42;;;;;;;19.02;7.30;;;13.50;99.90;;;;;;4981782;28;20502;-69
2023/10/10 06:17:08;;;;;;;17.65;7.60;;;13.50;99.90;;;;;;4997417;28;20072;-68
2023/10/10 06:19:34;;;;;;;18.13;7.25;;;13.50;99.90;;;;;;4992051;28;20041;-70
2023/10/10 06:22:02;;;;;;;20.15;8.18;;;13.50;99.90;;;;;;4991604;28;20023;-69
2023/10/10 06:24:28;;;;;;;21.60;8.00;;;13.50;99.90;;;;;;4986612;28;20026;-68
2023/10/10 06:27:00;;;;;;;24.48;9.20;;;13.50;99.90;;;;;;4991674;28;20037;-70
2023/10/10 06:29:29;;;;;;;19.23;9.02;;;13.50;99.90;;;;;;4992472;28;20442;-69
2023/10/10 06:31:56;;;;;;;21.38;8.90;;;13.50;99.90;;;;;;5009790;28;20073;-72
2023/10/10 06:34:22;;;;;;;17.75;8.82;;;13.50;99.90;;;;;;4992204;28;20023;-71
2023/10/10 06:36:50;;;;;;;18.10;8.70;;;13.50;99.90;;;;;;4993910;28;20058;-71
2023/10/10 06:41:46;;;;;;;23.88;9.30;;;13.50;99.90;;;;;;4981867;28;20074;-68
2023/10/10 06:44:17;;;;;;;19.65;9.30;;;13.50;99.90;;;;;;4984809;28;20058;-69
2023/10/10 06:46:46;;;;;;;25.85;9.20;;;13.60;99.90;;;;;;4981560;28;20111;-69
2023/10/10 06:49:12;;;;;;;18.27;9.18;;;13.60;99.90;;;;;;4992715;28;20379;-69
2023/10/10 06:51:40;;;;;;;20.67;8.93;;;13.60;99.90;;;;;;4987576;28;20029;-69
2023/10/10 06:54:27;;;;;;;23.20;8.68;;;13.60;99.90;;;;;;4988064;28;20379;-69
2023/10/10 06:57:04;;;;;;;20.40;10.25;;;13.60;99.90;;;;;;4983035;28;20042;-70
2023/10/10 06:59:30;;;;;;;19.92;8.95;;;13.60;99.90;;;;;;4989107;28;20034;-69
2023/10/10 07:01:59;;;;;;;22.05;9.07;;;13.60;99.90;;;;;;4988042;28;20022;-69
2023/10/10 07:04:27;;;;;;;21.58;9.95;;;13.70;99.90;;;;;;4988525;28;20077;-70
2023/10/10 07:06:54;;;;;;;25.40;9.73;;;13.70;99.90;;;;;;4987244;28;20022;-68
2023/10/10 07:09:29;;;;;;;24.63;10.20;;;13.80;99.90;;;;;;4988835;28;20434;-69
2023/10/10 07:12:09;;;;;;;23.92;10.02;;;13.80;99.90;;;;;;4992592;28;20026;-71
2023/10/10 07:14:43;;;;;;;25.30;9.70;;;13.70;99.90;;;;;;4982045;28;20038;-70
2023/10/10 07:17:12;;;;;;;19.33;9.70;;;13.80;99.90;;;;;;4990783;28;20030;-71
2023/10/10 07:21:04;;;;;;;22.55;9.90;;;13.80;99.90;;;;;;4986519;28;20471;-69
2023/10/10 07:22:41;;;;;;;23.55;9.63;;;13.80;99.90;;;;;;4986812;28;20039;-69
2023/10/10 07:25:31;;;;;;;19.98;9.75;;;13.80;99.90;;;;;;4989184;28;20060;-71
2023/10/10 07:27:57;;;;;;;19.10;8.43;;;13.90;99.90;;;;;;4984427;28;20108;-69
2023/10/10 07:30:33;;;;;;;24.05;9.00;;;13.90;99.90;;;;;;4991067;28;20105;-69
2023/10/10 07:33:02;;;;;;;21.05;9.65;;;14.00;99.90;;;;;;4981119;28;20391;-70
2023/10/10 07:35:28;;;;;;;18.58;8.85;;;14.10;99.90;;;;;;4991307;28;20109;-69
2023/10/10 07:37:58;;;;;;;14.73;7.50;;;14.10;99.90;;;;;;4992979;28;20113;-71
2023/10/10 07:40:31;;;;;;;15.07;7.83;;;14.10;99.90;;;;;;4980323;28;20041;-70
2023/10/10 07:42:59;;;;;;;13.48;7.38;;;14.20;99.90;;;;;;4991476;28;20491;-70
2023/10/10 07:45:33;;;;;;;17.42;7.90;;;14.40;99.90;;;;;;4991428;28;20023;-69
2023/10/10 07:50:34;;;;;;;11.18;6.40;;;14.30;99.90;;;;;;4992214;28;20069;-69
2023/10/10 07:53:05;;;;;;;10.60;6.25;;;14.50;99.90;;;;;;4990108;28;20019;-69
2023/10/10 07:55:50;;;;;;;;;;;14.50;99.90;;;;;;4984720;28;20037;-69
2023/10/10 07:58:16;;;;;;;9.50;4.93;;;14.60;99.90;;;;;;4990145;28;19952;-70
2023/10/10 08:00:44;;;;;;;8.82;4.90;;;14.60;99.90;;;;;;4979576;28;20043;-70
2023/10/10 08:03:19;;;;;;;8.05;4.28;;;14.60;99.90;;;;;;4983212;28;20121;-69
2023/10/10 08:05:48;;;;;;;7.03;4.43;;;14.70;99.90;;;;;;4988114;28;20041;-69
2023/10/10 08:08:15;;;;;;;8.80;3.97;;;14.70;99.80;;;;;;4990102;28;20031;-69
2023/10/10 08:10:44;;;;;;;9.68;4.38;;;14.80;99.60;;;;;;4993087;28;20030;-69
2023/10/10 08:13:10;;;;;;;8.82;3.70;;;14.80;99.50;;;;;;4981390;28;20027;-73
2023/10/10 08:15:49;;;;;;;8.27;3.70;;;14.80;99.30;;;;;;4976646;28;20037;-70
2023/10/10 08:18:39;;;;;;;7.57;3.42;;;14.80;99.40;;;;;;4984804;28;20383;-70
2023/10/10 08:23:26;;;;;;;7.32;2.97;;;14.70;99.10;;;;;;4990452;28;20123;-69
2023/10/10 08:25:52;;;;;;;6.75;3.30;;;14.70;99.00;;;;;;4992766;28;20053;-70
2023/10/10 08:28:18;;;;;;;7.07;3.50;;;14.70;99.20;;;;;;4984017;28;20027;-69
2023/10/10 08:30:44;;;;;;;7.22;2.72;;;14.70;99.40;;;;;;4989724;28;20623;-71
2023/10/10 08:33:09;;;;;;;8.07;3.30;;;14.80;99.50;;;;;;4992635;28;20541;-69
2023/10/10 08:35:38;;;;;;;8.98;3.25;;;15.00;99.50;;;;;;4989855;28;20172;-69
2023/10/10 08:38:05;;;;;;;8.05;3.78;;;15.20;99.40;;;;;;4989742;28;20091;-71
2023/10/10 08:40:36;;;;;;;7.03;3.10;;;15.60;99.80;;;;;;4990644;28;20497;-69
2023/10/10 08:43:07;;;;;;;6.68;3.08;;;15.50;98.70;;;;;;4988575;28;20026;-69
2023/10/10 08:45:39;;;;;;;7.72;3.38;;;15.50;98.30;;;;;;4986065;28;20535;-69
2023/10/10 08:48:12;;;;;;;6.30;3.05;;;15.60;98.10;;;;;;4986018;28;20035;-70
2023/10/10 08:50:40;;;;;;;6.13;2.58;;;15.50;98.20;;;;;;4984894;28;20045;-69
2023/10/10 08:53:10;;;;;;;5.70;2.42;;;15.60;98.20;;;;;;4991625;28;20044;-69
2023/10/10 08:55:38;;;;;;;5.55;2.60;;;15.40;97.70;;;;;;4978567;28;20114;-69
2023/10/10 08:58:07;;;;;;;5.38;2.78;;;15.20;97.90;;;;;;4980524;28;20459;-72
2023/10/10 09:00:33;;;;;;;6.47;3.03;;;15.20;98.00;;;;;;4974794;28;20081;-69
2023/10/10 09:02:59;;;;;;;6.10;2.85;;;15.10;98.00;;;;;;4985243;28;20027;-69
2023/10/10 09:05:25;;;;;;;5.13;2.70;;;15.10;97.90;;;;;;4984674;28;20478;-70
2023/10/10 09:07:53;;;;;;;7.10;2.80;;;15.10;98.00;;;;;;4986534;28;20564;-70
2023/10/10 09:10:28;;;;;;;5.18;2.92;;;15.30;98.20;;;;;;4991717;28;20022;-69
2023/10/10 09:12:58;;;;;;;6.93;2.85;;;15.30;98.10;;;;;;4981219;28;20030;-71
2023/10/10 09:15:25;;;;;;;7.95;3.15;;;15.50;98.40;;;;;;4979092;28;20519;-69
2023/10/10 09:17:58;;;;;;;7.03;3.58;;;15.60;98.10;;;;;;4986915;28;20034;-70
2023/10/10 09:20:29;;;;;;;7.50;3.50;;;15.60;97.70;;;;;;4984264;28;20038;-72
2023/10/10 09:23:04;;;;;;;5.18;3.00;;;15.60;97.30;;;;;;4978770;28;20041;-72
2023/10/10 09:25:48;;;;;;;10.00;3.22;;;15.70;97.30;;;;;;4991490;28;20046;-69
2023/10/10 09:28:16;;;;;;;8.00;3.15;;;15.80;97.30;;;;;;4990024;28;20471;-70
2023/10/10 09:30:58;;;;;;;6.32;3.10;;;16.00;97.40;;;;;;4988734;28;20026;-70
2023/10/10 09:33:29;;;;;;;6.93;3.45;;;15.90;96.70;;;;;;4981201;28;20092;-69
2023/10/10 09:36:08;;;;;;;;;;;16.00;96.80;;;;;;4983187;28;20046;-70
2023/10/10 09:38:36;;;;;;;6.78;2.85;;;16.00;96.50;;;;;;4987871;28;19917;-69
2023/10/10 09:41:11;;;;;;;10.02;2.95;;;16.20;96.80;;;;;;4979874;28;20037;-69
2023/10/10 09:44:01;;;;;;;7.68;3.25;;;16.20;96.30;;;;;;4985887;28;20038;-69
2023/10/10 09:46:53;;;;;;;5.70;3.15;;;16.20;95.90;;;;;;4988291;28;20038;-70
2023/10/10 09:49:39;;;;;;;7.30;3.35;;;16.30;96.10;;;;;;4981824;28;20027;-71
2023/10/10 09:55:30;;;;;;;6.97;3.38;;;16.20;96.30;;;;;;4990373;28;20038;-71
2023/10/10 10:06:36;;;;;;;6.72;3.38;;;16.40;95.60;;;;;;4991031;28;20037;-69
2023/10/10 10:09:32;;;;;;;6.05;3.70;;;16.60;95.40;;;;;;4986956;28;20034;-69
2023/10/10 10:12:05;;;;;;;5.60;3.25;;;16.80;95.20;;;;;;4986520;28;20066;-70
2023/10/10 10:14:46;;;;;;;6.47;3.35;;;17.00;94.30;;;;;;4981913;28;20132;-69
2023/10/10 10:17:18;;;;;;;;;;;17.20;93.50;;;;;;4994079;28;20030;-69
2023/10/10 10:19:45;;;;;;;8.23;3.58;;;17.40;93.20;;;;;;4992809;28;20390;-71
2023/10/10 10:22:17;;;;;;;5.90;2.90;;;17.60;93.00;;;;;;4990414;28;20415;-71
2023/10/10 10:24:46;;;;;;;9.10;2.90;;;17.90;93.80;;;;;;4991537;28;20022;-70
2023/10/10 10:27:35;;;;;;;3.38;2.40;;;17.80;91.50;;;;;;4990112;28;20058;-70
2023/10/10 10:30:30;;;;;;;5.50;2.50;;;17.70;91.20;;;;;;4986865;28;20026;-69
2023/10/10 10:32:54;;;;;;;6.20;2.05;;;18.20;92.10;;;;;;4990401;28;20042;-70
2023/10/10 10:35:24;;;;;;;3.92;1.85;;;18.50;90.80;;;;;;4991315;28;20125;-70
2023/10/10 10:37:58;;;;;;;3.63;2.13;;;18.50;89.50;;;;;;4993849;28;20034;-69
2023/10/10 10:43:05;;;;;;;5.18;2.10;;;18.10;88.90;;;;;;4989876;28;20459;-73
2023/10/10 10:45:37;;;;;;;4.97;2.20;;;17.90;89.60;;;;;;4983439;28;20121;-70
2023/10/10 10:48:06;;;;;;;4.07;2.33;;;17.90;90.10;;;;;;4988575;28;20030;-70
2023/10/10 10:50:44;;;;;;;4.45;2.50;;;18.00;89.90;;;;;;4986110;28;20077;-70
2023/10/10 10:53:30;;;;;;;3.92;2.38;;;18.10;90.10;;;;;;4992795;28;20026;-70
2023/10/10 10:59:12;;;;;;;4.22;2.70;;;18.50;88.20;;;;;;4985417;28;20045;-70
2023/10/10 11:01:43;;;;;;;4.82;2.22;;;18.60;88.10;;;;;;4991317;28;20042;-69
2023/10/10 11:04:15;;;;;;;3.88;2.40;;;19.00;88.40;;;;;;4990420;28;20042;-70
2023/10/10 11:06:52;;;;;;;6.57;2.55;;;19.00;86.70;;;;;;4983964;28;20037;-70
2023/10/10 11:09:28;;;;;;;4.32;2.35;;;19.10;86.00;;;;;;4990611;28;20039;-69
2023/10/10 11:12:02;;;;;;;4.63;1.92;;;19.10;85.80;;;;;;4991950;28;20471;-71
2023/10/10 11:14:29;;;;;;;4.38;2.03;;;19.40;87.30;;;;;;4989322;28;20022;-71
2023/10/10 11:16:57;;;;;;;4.85;2.08;;;19.50;85.30;;;;;;4989646;28;20399;-70
2023/10/10 11:21:57;;;;;;;;;;;19.50;84.30;;;;;;4987956;28;20049;-70
2023/10/10 11:24:34;;;;;;;3.92;1.73;;;19.70;84.20;;;;;;4988758;28;19913;-70
2023/10/10 11:27:13;;;;;;;4.30;2.15;;;19.60;84.30;;;;;;4984386;28;20045;-70
2023/10/10 11:29:47;;;;;;;4.88;1.85;;;19.60;83.80;;;;;;4991190;28;20019;-71
2023/10/10 11:32:15;;;;;;;2.70;1.80;;;19.90;83.40;;;;;;4986450;28;20137;-70
2023/10/10 11:34:44;;;;;;;4.43;1.90;;;20.00;83.00;;;;;;4992273;28;20033;-70
2023/10/10 11:37:14;;;;;;;3.22;1.70;;;20.20;83.40;;;;;;4985090;28;20037;-70
2023/10/10 11:39:47;;;;;;;5.40;1.67;;;20.30;82.50;;;;;;4992224;28;20117;-71
2023/10/10 11:42:35;;;;;;;4.43;1.98;;;20.30;83.20;;;;;;4986723;28;20525;-70
2023/10/10 11:45:05;;;;;;;3.58;2.13;;;20.30;81.10;;;;;;4979339;28;20109;-73
2023/10/10 11:47:31;;;;;;;3.10;1.97;;;20.20;80.50;;;;;;4981999;28;20027;-70
2023/10/10 11:50:05;;;;;;;5.65;2.40;;;20.60;81.30;;;;;;4985049;28;20046;-72
2023/10/10 11:52:32;;;;;;;3.42;1.95;;;20.60;81.00;;;;;;4978534;28;20464;-71
2023/10/10 11:55:03;;;;;;;5.05;2.40;;;21.10;80.90;;;;;;4991896;28;20378;-70
2023/10/10 11:57:29;;;;;;;5.82;2.38;;;21.40;81.10;;;;;;4984316;28;20026;-70
2023/10/10 11:59:58;;;;;;;5.50;2.53;;;21.50;78.50;;;;;;4985719;28;20035;-71
2023/10/10 12:02:29;;;;;;;4.18;2.10;;;21.00;79.10;;;;;;4979017;28;20713;-69
2023/10/10 12:04:55;;;;;;;3.53;2.38;;;20.70;81.00;;;;;;4982629;28;20064;-69
2023/10/10 12:07:24;;;;;;;4.68;2.63;;;20.90;80.90;;;;;;4989050;28;20485;-69
2023/10/10 12:09:52;;;;;;;4.25;2.55;;;20.80;80.50;;;;;;4990622;28;20511;-68
2023/10/10 12:12:17;;;;;;;5.93;2.70;;;20.90;82.00;;;;;;4992277;28;20040;-69
2023/10/10 12:14:43;;;;;;;7.10;3.22;;;21.00;81.00;;;;;;4990473;28;20022;-69
2023/10/10 12:17:08;;;;;;;5.57;3.15;;;20.40;82.40;;;;;;4984882;28;20034;-68
2023/10/10 12:19:37;;;;;;;5.30;2.65;;;20.10;82.70;;;;;;4992999;28;20476;-69
2023/10/10 12:22:10;;;;;;;5.07;3.10;;;20.00;83.80;;;;;;4990918;28;20026;-69
2023/10/10 12:24:36;;;;;;;5.93;2.90;;;19.80;85.20;;;;;;4991868;28;20511;-67
2023/10/10 12:27:06;;;;;;;5.47;3.00;;;19.90;84.60;;;;;;4985971;28;20057;-68
2023/10/10 12:29:33;;;;;;;7.72;3.42;;;19.70;85.90;;;;;;4988482;28;20026;-68
2023/10/10 12:32:00;;;;;;;6.07;3.17;;;19.40;86.10;;;;;;4991619;28;20033;-68
2023/10/10 12:34:25;;;;;;;7.85;3.67;;;19.10;86.40;;;;;;4985793;28;20375;-68
2023/10/10 12:36:59;;;;;;;7.10;3.60;;;19.00;86.50;;;;;;4990230;28;20030;-70
2023/10/10 12:39:27;;;;;;;6.53;3.33;;;19.00;87.20;;;;;;4987593;28;20049;-68
2023/10/10 12:41:55;;;;;;;6.70;3.45;;;19.00;87.50;;;;;;4986771;28;20589;-69
2023/10/10 12:44:23;;;;;;;8.25;3.53;;;19.00;87.30;;;;;;4983601;28;20031;-68
2023/10/10 12:46:49;;;;;;;5.78;3.35;;;19.00;87.50;;;;;;4986539;28;20057;-68
2023/10/10 12:49:17;;;;;;;8.25;3.58;;;18.90;87.80;;;;;;4979500;28;20030;-68
2023/10/10 12:51:45;;;;;;;7.32;3.13;;;18.80;87.40;;;;;;4979767;28;20030;-68
2023/10/10 12:54:17;;;;;;;6.55;3.40;;;18.70;87.70;;;;;;4979160;28;20034;-68
2023/10/10 12:56:49;;;;;;;7.25;3.42;;;18.90;87.70;;;;;;4981269;28;20486;-68
2023/10/10 12:59:18;;;;;;;7.07;3.90;;;19.00;87.50;;;;;;4979754;28;20036;-68
2023/10/10 13:01:44;;;;;;;6.25;4.00;;;18.90;87.80;;;;;;4982199;28;20073;-70
2023/10/10 13:04:11;;;;;;;5.90;3.70;;;19.00;86.90;;;;;;4984638;28;20436;-68
2023/10/10 13:06:39;;;;;;;6.03;3.60;;;18.90;87.80;;;;;;4979693;28;20110;-70
2023/10/10 13:09:05;;;;;;;7.40;3.97;;;18.70;88.10;;;;;;4987582;28;20042;-69
2023/10/10 13:11:36;;;;;;;7.53;4.50;;;18.70;89.00;;;;;;4980427;28;20026;-68
2023/10/10 13:14:15;;;;;;;6.70;4.43;;;18.60;89.00;;;;;;4973434;28;20419;-68
2023/10/10 13:19:06;;;;;;;10.80;5.35;;;18.80;89.20;;;;;;4980925;28;20395;-68
2023/10/10 13:21:36;;;;;;;9.43;4.85;;;18.70;88.90;;;;;;4981287;28;20045;-67
2023/10/10 13:24:03;;;;;;;8.35;4.30;;;18.60;89.40;;;;;;4979043;28;20023;-68
2023/10/10 13:26:28;;;;;;;7.43;4.28;;;18.60;89.70;;;;;;4983976;28;20039;-69
2023/10/10 13:28:54;;;;;;;8.85;4.47;;;18.60;89.30;;;;;;4983972;28;20076;-70
2023/10/10 13:31:24;;;;;;;8.15;5.22;;;18.70;89.70;;;;;;4981052;28;20478;-68
2023/10/10 13:33:50;;;;;;;9.95;5.80;;;18.60;90.10;;;;;;4989055;28;20084;-70
2023/10/10 13:36:16;;;;;;;8.73;4.88;;;18.50;89.90;;;;;;4987900;28;20086;-68
2023/10/10 13:38:47;;;;;;;10.40;5.15;;;18.40;90.30;;;;;;4983768;28;20478;-69
2023/10/10 13:41:19;;;;;;;10.15;5.95;;;18.30;90.50;;;;;;4988059;28;20038;-68
2023/10/10 13:43:49;;;;;;;9.82;6.68;;;18.30;90.60;;;;;;4978628;28;20041;-68
2023/10/10 13:46:18;;;;;;;13.60;6.95;;;18.30;91.20;;;;;;4985520;28;20042;-68
2023/10/10 13:48:44;;;;;;;12.02;7.30;;;18.20;90.90;;;;;;4986248;28;20486;-68
2023/10/10 13:51:09;;;;;;;11.30;7.38;;;18.30;91.10;;;;;;4980755;28;20027;-68
2023/10/10 13:53:39;;;;;;;14.40;7.43;;;18.20;91.30;;;;;;4987091;28;20537;-69
2023/10/10 13:56:04;;;;;;;15.57;8.20;;;18.10;91.10;;;;;;4979024;28;20038;-69
2023/10/10 13:58:30;;;;;;;13.73;7.45;;;18.00;91.40;;;;;;4986769;28;20042;-68
2023/10/10 14:01:13;;;;;;;14.25;8.27;;;18.00;91.90;;;;;;4977056;28;20034;-69
2023/10/10 14:03:45;;;;;;;19.25;8.85;;;18.00;92.50;;;;;;4984932;28;20073;-68
2023/10/10 14:06:12;;;;;;;13.75;8.52;;;17.80;92.50;;;;;;4982621;28;20380;-68
2023/10/10 14:08:43;;;;;;;18.38;9.13;;;17.80;93.20;;;;;;4981692;28;20387;-67
2023/10/10 14:11:10;;;;;;;16.35;9.23;;;17.80;93.00;;;;;;4988725;28;20023;-67
2023/10/10 14:13:35;;;;;;;16.08;9.73;;;17.80;93.10;;;;;;4986925;28;20056;-68
2023/10/10 14:16:01;;;;;;;17.23;9.60;;;17.90;93.30;;;;;;4981770;28;20474;-68
2023/10/10 14:18:26;;;;;;;17.15;10.05;;;17.90;93.20;;;;;;4991131;28;20041;-68
2023/10/10 14:20:53;;;;;;;17.10;10.27;;;18.00;93.80;;;;;;4965224;28;20996;-68
2023/10/10 14:23:21;;;;;;;15.13;9.35;;;17.80;93.60;;;;;;4981566;28;20034;-68
2023/10/10 14:25:49;;;;;;;15.25;9.57;;;17.80;93.50;;;;;;4989031;28;20460;-68
2023/10/10 14:28:16;;;;;;;16.90;9.95;;;17.90;93.60;;;;;;4986270;28;20034;-71
2023/10/10 14:30:49;;;;;;;17.92;9.65;;;18.00;93.50;;;;;;4979190;28;20856;-68
2023/10/10 14:33:16;;;;;;;18.27;10.48;;;18.00;93.70;;;;;;4988940;28;20037;-69
2023/10/10 14:35:43;;;;;;;19.00;10.82;;;18.00;93.10;;;;;;4981744;28;20019;-69
2023/10/10 14:38:12;;;;;;;16.92;10.07;;;18.00;93.30;;;;;;4986953;28;20065;-69
2023/10/10 14:40:38;;;;;;;19.85;11.18;;;18.00;93.20;;;;;;4984158;28;20061;-68
2023/10/10 14:43:06;;;;;;;18.35;11.07;;;17.90;93.00;;;;;;4981034;28;20459;-70
2023/10/10 14:45:32;;;;;;;19.80;11.02;;;18.00;93.60;;;;;;4988042;28;20109;-69
2023/10/10 14:47:58;;;;;;;20.17;11.70;;;18.00;93.30;;;;;;5007754;28;20037;-68
2023/10/10 14:50:24;;;;;;;21.23;11.43;;;17.90;93.20;;;;;;4989794;28;20030;-69
2023/10/10 14:52:51;;;;;;;19.35;11.50;;;17.80;93.30;;;;;;4987103;28;20433;-68
2023/10/10 14:55:25;;;;;;;21.52;12.15;;;17.80;93.90;;;;;;4990073;28;20034;-67
2023/10/10 14:57:55;;;;;;;21.98;12.40;;;17.70;94.00;;;;;;4982652;28;20038;-69
2023/10/10 15:00:25;;;;;;;27.58;13.20;;;17.60;94.30;;;;;;4989334;28;20447;-69
2023/10/10 15:02:53;;;;;;;22.05;12.40;;;17.60;94.70;;;;;;4983815;28;20483;-68
2023/10/10 15:05:21;;;;;;;25.02;13.00;;;17.50;94.90;;;;;;4993342;28;20034;-69
2023/10/10 15:07:47;;;;;;;25.55;13.95;;;17.50;95.10;;;;;;4988563;28;20030;-68
2023/10/10 15:10:12;;;;;;;26.80;14.77;;;17.50;95.40;;;;;;5003818;28;20100;-68
2023/10/10 15:12:38;;;;;;;25.23;13.93;;;17.40;95.40;;;;;;4977889;28;20369;-68
2023/10/10 15:15:04;;;;;;;27.45;15.05;;;17.50;95.70;;;;;;4988358;28;20080;-68
2023/10/10 15:17:30;;;;;;;25.65;14.93;;;17.40;95.90;;;;;;4991490;28;20041;-72
2023/10/10 15:19:55;;;;;;;28.25;15.23;;;17.30;95.90;;;;;;4992046;28;20038;-69
2023/10/10 15:22:21;;;;;;;28.58;16.45;;;17.30;96.00;;;;;;4987779;28;20042;-68
2023/10/10 15:24:49;;;;;;;26.92;16.45;;;17.40;96.00;;;;;;4988550;28;20371;-68
2023/10/10 15:27:16;;;;;;;30.55;17.17;;;17.40;96.00;;;;;;4993214;28;20034;-68
2023/10/10 15:29:42;;;;;;;31.50;17.10;;;17.30;96.10;;;;;;4985701;28;20023;-68
2023/10/10 15:32:08;;;;;;;36.58;18.27;;;17.30;96.20;;;;;;4990505;28;20022;-68
2023/10/10 15:34:34;;;;;;;30.92;17.75;;;17.30;96.20;;;;;;4986372;28;20038;-70
2023/10/10 15:37:14;;;;;;;28.83;17.85;;;17.30;96.30;;;;;;4988572;28;20034;-68
2023/10/10 15:39:41;;;;;;;36.28;18.55;;;17.30;96.40;;;;;;4985130;28;20041;-69